Time;durP1;ratioP1;P1;durP2;ratioP2;P2;SDS_P1;SDS_P2;PMS_P1;PMS_P2;Temp;Humidity;BMP_temperature;BMP_pressure;BME280_temperature;BME280_humidity;BME280_pressure;Samples;Min_cycle;Max_cycle;Signal;HPM_P1;HPM_P2
2023/08/23 00:00:06;;;;;;;13.63;12.33;;;24.70;99.90;;;;;;5071807;28;20357;-56
2023/08/23 00:02:33;;;;;;;11.60;10.60;;;24.60;99.90;;;;;;5070599;28;20289;-56
2023/08/23 00:05:00;;;;;;;11.87;10.97;;;24.60;99.90;;;;;;5071743;28;20262;-56
2023/08/23 00:07:28;;;;;;;10.67;9.97;;;24.50;99.90;;;;;;5070876;28;20670;-56
2023/08/23 00:09:55;;;;;;;11.13;10.23;;;24.40;99.90;;;;;;5071715;28;20205;-56
2023/08/23 00:12:22;;;;;;;10.70;10.10;;;24.30;99.90;;;;;;5071943;28;20247;-56
2023/08/23 00:14:49;;;;;;;12.10;10.33;;;24.20;99.90;;;;;;5071302;28;20221;-56
2023/08/23 00:17:16;;;;;;;12.40;11.57;;;24.20;99.90;;;;;;5071720;28;20197;-56
2023/08/23 00:19:43;;;;;;;11.80;10.80;;;24.20;99.90;;;;;;5070863;28;20217;-56
2023/08/23 00:22:10;;;;;;;11.20;10.30;;;24.10;99.90;;;;;;5071055;28;20197;-56
2023/08/23 00:24:38;;;;;;;13.00;12.13;;;24.10;99.90;;;;;;5071708;28;20221;-56
2023/08/23 00:27:05;;;;;;;11.50;10.70;;;24.10;99.90;;;;;;5071393;28;20200;-55
2023/08/23 00:29:32;;;;;;;11.87;10.93;;;24.10;99.90;;;;;;5071621;28;20736;-56
2023/08/23 00:31:59;;;;;;;12.83;11.73;;;24.10;99.90;;;;;;5071730;28;20192;-56
2023/08/23 00:34:26;;;;;;;13.18;12.18;;;24.10;99.90;;;;;;5085374;22;20358;-58
2023/08/23 00:36:53;;;;;;;12.77;11.70;;;24.20;99.90;;;;;;5052919;28;20206;-57
2023/08/23 00:39:20;;;;;;;12.23;11.43;;;24.20;99.90;;;;;;5051634;28;20213;-57
2023/08/23 00:41:48;;;;;;;12.63;11.63;;;24.20;99.90;;;;;;5051751;28;20296;-57
2023/08/23 00:44:15;;;;;;;10.90;10.20;;;24.10;99.90;;;;;;5052602;28;20214;-57
2023/08/23 00:46:42;;;;;;;11.27;10.57;;;24.10;99.90;;;;;;5052821;28;20579;-57
2023/08/23 00:49:09;;;;;;;11.23;10.40;;;24.00;99.90;;;;;;5051559;28;20194;-58
2023/08/23 00:51:36;;;;;;;10.37;9.67;;;24.00;99.90;;;;;;5052651;28;20682;-57
2023/08/23 00:54:03;;;;;;;11.90;11.10;;;23.90;99.90;;;;;;5050367;28;20268;-58
2023/08/23 00:56:32;;;;;;;12.07;11.20;;;23.90;99.90;;;;;;5052375;28;20289;-57
2023/08/23 00:59:00;;;;;;;11.13;10.47;;;23.80;99.90;;;;;;5049254;28;20767;-58
2023/08/23 01:01:27;;;;;;;12.87;11.77;;;23.80;99.90;;;;;;5051882;28;20198;-58
2023/08/23 01:03:58;;;;;;;10.43;9.63;;;23.70;99.90;;;;;;5051968;28;20267;-56
2023/08/23 01:06:47;;;;;;;12.37;11.27;;;23.70;99.90;;;;;;5051506;28;20205;-56
2023/08/23 01:09:22;;;;;;;12.10;11.30;;;23.60;99.90;;;;;;5053057;28;20281;-58
2023/08/23 01:11:56;;;;;;;11.60;10.83;;;23.60;99.90;;;;;;5052356;28;20255;-57
2023/08/23 01:14:32;;;;;;;11.50;10.60;;;23.50;99.90;;;;;;5051939;28;20236;-57
2023/08/23 01:17:01;;;;;;;11.47;10.67;;;23.50;99.90;;;;;;5052247;28;20263;-57
2023/08/23 01:19:43;;;;;;;11.67;10.80;;;23.50;99.90;;;;;;5050881;28;20218;-58
2023/08/23 01:22:12;;;;;;;12.20;11.10;;;23.50;99.90;;;;;;5044152;28;20286;-57
2023/08/23 01:24:41;;;;;;;13.47;12.43;;;23.50;99.90;;;;;;5050623;28;20233;-57
2023/08/23 01:27:08;;;;;;;12.33;11.33;;;23.50;99.90;;;;;;5045663;28;20198;-58
2023/08/23 01:29:35;;;;;;;11.77;10.77;;;23.50;99.90;;;;;;5056246;28;20244;-57
2023/08/23 01:32:12;;;;;;;12.53;11.50;;;23.60;99.90;;;;;;5050743;28;20737;-58
2023/08/23 01:34:44;;;;;;;10.83;10.13;;;23.60;99.90;;;;;;5050495;28;20275;-58
2023/08/23 01:37:12;;;;;;;11.17;10.47;;;23.60;99.90;;;;;;5044040;28;20668;-57
2023/08/23 01:39:41;;;;;;;11.57;10.67;;;23.50;99.90;;;;;;5051702;28;20259;-57
2023/08/23 01:42:08;;;;;;;12.33;11.37;;;23.50;99.90;;;;;;5055705;28;20565;-57
2023/08/23 01:44:35;;;;;;;11.87;10.97;;;23.50;99.90;;;;;;5050125;28;20221;-58
2023/08/23 01:47:02;;;;;;;11.73;10.67;;;23.50;99.90;;;;;;5051780;28;20552;-59
2023/08/23 01:49:29;;;;;;;12.27;11.47;;;23.40;99.90;;;;;;5053948;28;20202;-60
2023/08/23 01:51:56;;;;;;;10.77;9.97;;;23.50;99.90;;;;;;5049788;28;20197;-57
2023/08/23 01:54:23;;;;;;;12.43;11.53;;;23.50;99.90;;;;;;5050162;28;20222;-57
2023/08/23 01:56:51;;;;;;;11.70;10.63;;;23.50;99.90;;;;;;5048775;28;20197;-57
2023/08/23 01:59:18;;;;;;;11.33;10.43;;;23.50;99.90;;;;;;5050072;28;20210;-57
2023/08/23 02:01:45;;;;;;;12.23;11.43;;;23.50;99.90;;;;;;5051737;28;20202;-57
2023/08/23 02:04:13;;;;;;;12.67;11.73;;;23.60;99.90;;;;;;5051210;28;20222;-58
2023/08/23 02:06:40;;;;;;;11.97;11.10;;;23.60;99.90;;;;;;5051672;28;20202;-57
2023/08/23 02:09:07;;;;;;;12.63;11.27;;;23.50;99.90;;;;;;5050599;28;20732;-59
2023/08/23 02:11:36;;;;;;;13.20;12.13;;;23.50;99.90;;;;;;5051386;28;20248;-58
2023/08/23 02:14:05;;;;;;;11.17;10.37;;;23.50;99.90;;;;;;5049243;28;20214;-57
2023/08/23 02:16:31;;;;;;;13.17;11.83;;;23.40;99.90;;;;;;5051540;28;20194;-57
2023/08/23 02:18:58;;;;;;;12.20;11.30;;;23.40;99.90;;;;;;5051261;28;20605;-57
2023/08/23 02:21:25;;;;;;;11.00;10.23;;;23.30;99.90;;;;;;5050870;28;20209;-58
2023/08/23 02:23:52;;;;;;;12.03;10.73;;;23.30;99.90;;;;;;5050491;28;20766;-58
2023/08/23 02:26:19;;;;;;;12.97;11.83;;;23.20;99.90;;;;;;5051467;28;20205;-57
2023/08/23 02:28:46;;;;;;;12.10;11.20;;;23.20;99.90;;;;;;5051488;28;20201;-58
2023/08/23 02:31:14;;;;;;;11.77;10.87;;;23.20;99.90;;;;;;5057954;28;20198;-57
2023/08/23 02:33:41;;;;;;;13.70;12.70;;;23.20;99.90;;;;;;5050786;28;20221;-57
2023/08/23 02:36:08;;;;;;;12.03;11.13;;;23.10;99.90;;;;;;5050253;28;20801;-57
2023/08/23 02:38:35;;;;;;;12.07;10.97;;;23.10;99.90;;;;;;5051148;28;20198;-58
2023/08/23 02:41:02;;;;;;;13.00;11.90;;;23.00;99.90;;;;;;5051067;28;20252;-57
2023/08/23 02:43:29;;;;;;;12.57;11.77;;;23.00;99.90;;;;;;5053023;28;20794;-58
2023/08/23 02:45:56;;;;;;;13.17;12.07;;;23.00;99.90;;;;;;5054254;28;20209;-57
2023/08/23 02:48:24;;;;;;;12.47;11.73;;;23.00;99.90;;;;;;5053443;28;20198;-57
2023/08/23 02:50:51;;;;;;;12.70;11.80;;;22.90;99.90;;;;;;5054724;28;20197;-57
2023/08/23 02:53:18;;;;;;;12.60;11.73;;;23.00;99.90;;;;;;5054508;28;20244;-57
2023/08/23 02:55:45;;;;;;;11.63;10.83;;;22.90;99.90;;;;;;5054746;28;20734;-57
2023/08/23 02:58:12;;;;;;;14.23;13.03;;;22.90;99.90;;;;;;5054942;28;20198;-57
2023/08/23 03:00:39;;;;;;;14.17;13.03;;;22.90;99.90;;;;;;5053787;28;20305;-58
2023/08/23 03:03:09;;;;;;;13.47;12.37;;;22.90;99.90;;;;;;5052582;28;20194;-57
2023/08/23 03:05:38;;;;;;;11.60;10.80;;;22.90;99.90;;;;;;5054596;28;20198;-57
2023/08/23 03:08:05;;;;;;;13.27;12.30;;;22.80;99.90;;;;;;5054611;28;20201;-58
2023/08/23 03:10:32;;;;;;;12.80;11.77;;;22.80;99.90;;;;;;5054583;28;20666;-57
2023/08/23 03:12:59;;;;;;;14.33;13.10;;;22.80;99.90;;;;;;5053070;28;20625;-57
2023/08/23 03:15:26;;;;;;;13.57;12.37;;;22.80;99.90;;;;;;5054427;28;20266;-59
2023/08/23 03:17:53;;;;;;;14.57;13.27;;;22.80;99.90;;;;;;5054394;28;20224;-57
2023/08/23 03:20:19;;;;;;;14.07;12.97;;;22.70;99.90;;;;;;5057055;28;20254;-57
2023/08/23 03:22:48;;;;;;;13.17;12.10;;;22.80;99.90;;;;;;5052566;28;20202;-57
2023/08/23 03:25:15;;;;;;;14.10;12.90;;;22.80;99.90;;;;;;5053132;28;20213;-58
2023/08/23 03:27:42;;;;;;;16.73;15.00;;;22.80;99.90;;;;;;5054256;28;20202;-57
2023/08/23 03:30:10;;;;;;;15.27;13.87;;;22.70;99.90;;;;;;5054280;28;20618;-57
2023/08/23 03:32:36;;;;;;;14.47;13.23;;;22.70;99.90;;;;;;5052461;28;20209;-58
2023/08/23 03:35:03;;;;;;;14.70;13.63;;;22.70;99.90;;;;;;5053757;28;20230;-56
2023/08/23 03:37:31;;;;;;;15.40;14.20;;;22.60;99.90;;;;;;5052223;28;20605;-58
2023/08/23 03:39:59;;;;;;;13.77;12.77;;;22.60;99.90;;;;;;5054017;28;20213;-57
2023/08/23 03:42:26;;;;;;;14.67;13.27;;;22.60;99.90;;;;;;5053615;28;20205;-57
2023/08/23 03:44:53;;;;;;;14.17;13.03;;;22.60;99.90;;;;;;5053891;28;20222;-59
2023/08/23 03:47:20;;;;;;;13.23;12.23;;;22.60;99.90;;;;;;5053805;28;20201;-57
2023/08/23 03:49:47;;;;;;;12.33;11.53;;;22.60;99.90;;;;;;5052677;28;20748;-57
2023/08/23 03:52:14;;;;;;;14.53;13.17;;;22.60;99.90;;;;;;5051967;28;20193;-59
2023/08/23 03:54:42;;;;;;;15.57;14.17;;;22.60;99.90;;;;;;5053461;28;20275;-57
2023/08/23 03:57:10;;;;;;;14.87;13.57;;;22.60;99.90;;;;;;5033682;28;20229;-57
2023/08/23 03:59:37;;;;;;;12.43;11.37;;;22.60;99.90;;;;;;5033627;28;20676;-57
2023/08/23 04:02:04;;;;;;;14.80;13.53;;;22.50;99.90;;;;;;5037565;28;20198;-58
2023/08/23 04:04:31;;;;;;;13.57;12.43;;;22.50;99.90;;;;;;5053477;28;20229;-57
2023/08/23 04:06:58;;;;;;;12.73;11.87;;;22.50;99.90;;;;;;5053400;28;20201;-58
2023/08/23 04:09:25;;;;;;;13.87;12.87;;;22.40;99.90;;;;;;5051864;28;20198;-57
2023/08/23 04:11:51;;;;;;;11.53;10.73;;;22.40;99.90;;;;;;5053270;28;20202;-57
2023/08/23 04:14:20;;;;;;;10.73;10.03;;;22.40;99.90;;;;;;5052094;28;20367;-57
2023/08/23 04:16:47;;;;;;;12.93;11.83;;;22.50;99.90;;;;;;5053025;28;20282;-57
2023/08/23 04:19:14;;;;;;;12.70;11.90;;;22.50;99.90;;;;;;5053511;28;20253;-57
2023/08/23 04:21:41;;;;;;;15.07;13.77;;;22.50;99.90;;;;;;5052376;28;20258;-57
2023/08/23 04:24:08;;;;;;;14.60;13.27;;;22.50;99.90;;;;;;5045321;28;20237;-58
2023/08/23 04:26:35;;;;;;;12.53;11.53;;;22.50;99.90;;;;;;5056506;28;20263;-57
2023/08/23 04:29:02;;;;;;;13.17;11.80;;;22.50;99.90;;;;;;5052153;28;20259;-57
2023/08/23 04:31:30;;;;;;;12.97;11.93;;;22.50;99.90;;;;;;5052973;28;20214;-58
2023/08/23 04:33:57;;;;;;;14.23;13.00;;;22.40;99.90;;;;;;5049483;28;20731;-58
2023/08/23 04:36:24;;;;;;;13.13;11.97;;;22.40;99.90;;;;;;5052890;28;20251;-57
2023/08/23 04:38:51;;;;;;;13.20;12.00;;;22.40;99.90;;;;;;5051129;28;20194;-58
2023/08/23 04:41:18;;;;;;;12.70;11.57;;;22.30;99.90;;;;;;5045217;28;20267;-57
2023/08/23 04:43:45;;;;;;;12.83;11.60;;;22.30;99.90;;;;;;5051621;28;20287;-58
2023/08/23 04:46:12;;;;;;;12.27;10.87;;;22.30;99.90;;;;;;5054428;28;20663;-57
2023/08/23 04:48:40;;;;;;;11.67;10.87;;;22.30;99.90;;;;;;5051591;28;20891;-57
2023/08/23 04:51:09;;;;;;;10.57;9.97;;;22.40;99.90;;;;;;5051698;28;20244;-58
2023/08/23 04:53:36;;;;;;;11.30;10.50;;;22.40;99.90;;;;;;5050557;28;20320;-57
2023/08/23 04:56:03;;;;;;;12.90;11.80;;;22.50;99.90;;;;;;5048551;28;20325;-57
2023/08/23 04:58:30;;;;;;;11.40;10.67;;;22.50;99.90;;;;;;5045369;28;20247;-57
2023/08/23 05:01:03;;;;;;;11.93;11.00;;;22.60;99.90;;;;;;5051548;28;20244;-59
2023/08/23 05:03:30;;;;;;;12.10;11.20;;;22.60;99.90;;;;;;5051122;28;20220;-58
2023/08/23 05:05:58;;;;;;;14.00;12.90;;;22.60;99.90;;;;;;5050873;28;20248;-57
2023/08/23 05:08:25;;;;;;;12.30;11.43;;;22.70;99.90;;;;;;5051329;28;20248;-57
2023/08/23 05:10:53;;;;;;;14.60;11.57;;;22.70;99.90;;;;;;5052686;28;20247;-58
2023/08/23 05:13:20;;;;;;;12.50;11.60;;;22.80;99.90;;;;;;5042190;28;20233;-59
2023/08/23 05:15:52;;;;;;;14.47;13.13;;;22.90;99.90;;;;;;5046738;28;20234;-58
2023/08/23 05:18:19;;;;;;;13.10;12.10;;;23.00;99.90;;;;;;5032579;28;20626;-57
2023/08/23 05:20:46;;;;;;;11.73;10.73;;;23.10;99.90;;;;;;5032219;28;20221;-57
2023/08/23 05:23:15;;;;;;;12.70;11.60;;;23.20;99.90;;;;;;5032045;28;20195;-57
2023/08/23 05:25:42;;;;;;;14.20;13.00;;;23.30;99.90;;;;;;5032193;28;20198;-58
2023/08/23 05:28:09;;;;;;;14.50;13.20;;;23.30;99.90;;;;;;5049315;28;20209;-57
2023/08/23 05:30:39;;;;;;;12.97;11.63;;;23.40;99.90;;;;;;5050968;28;20194;-57
2023/08/23 05:33:09;;;;;;;12.83;11.93;;;23.40;99.90;;;;;;5050174;28;20281;-59
2023/08/23 05:35:36;;;;;;;13.67;12.70;;;23.50;99.90;;;;;;5048331;28;20205;-57
2023/08/23 05:38:03;;;;;;;13.57;12.37;;;23.60;99.90;;;;;;5032349;28;20556;-57
2023/08/23 05:40:32;;;;;;;12.00;11.10;;;23.70;99.90;;;;;;5031806;28;20312;-59
2023/08/23 05:42:59;;;;;;;14.13;12.93;;;23.80;99.90;;;;;;5039241;28;20627;-57
2023/08/23 05:45:26;;;;;;;13.97;12.63;;;23.80;99.90;;;;;;5045943;28;20224;-57
2023/08/23 05:47:55;;;;;;;13.43;12.23;;;23.90;99.90;;;;;;5050808;28;20198;-57
2023/08/23 05:50:22;;;;;;;12.63;11.67;;;23.90;99.90;;;;;;5049233;28;20237;-56
2023/08/23 05:52:49;;;;;;;14.40;13.10;;;23.90;99.90;;;;;;5046691;28;20228;-56
2023/08/23 05:55:16;;;;;;;12.27;11.03;;;23.80;99.90;;;;;;5051521;28;20591;-57
2023/08/23 05:57:44;;;;;;;13.30;12.10;;;23.80;99.90;;;;;;5051692;28;20561;-57
2023/08/23 06:00:13;;;;;;;11.97;10.97;;;23.70;99.90;;;;;;5048797;28;20224;-57
2023/08/23 06:02:40;;;;;;;13.17;12.00;;;23.80;99.90;;;;;;5051205;28;20571;-56
2023/08/23 06:05:10;;;;;;;14.17;12.70;;;23.80;99.90;;;;;;5050305;28;20251;-57
2023/08/23 06:07:37;;;;;;;12.97;11.83;;;24.60;99.90;;;;;;5051242;28;20683;-60
2023/08/23 06:10:05;;;;;;;14.23;13.00;;;25.60;99.90;;;;;;5050065;28;20202;-56
2023/08/23 06:12:33;;;;;;;13.65;12.45;;;26.60;99.90;;;;;;5051140;28;20209;-56
2023/08/23 06:15:02;;;;;;;18.92;12.57;;;27.50;99.90;;;;;;5050144;28;20225;-56
2023/08/23 06:17:29;;;;;;;13.90;12.38;;;28.40;99.90;;;;;;5053099;28;20304;-59
2023/08/23 06:19:55;;;;;;;12.35;9.95;;;29.30;99.90;;;;;;5055250;28;20259;-60
2023/08/23 06:22:22;;;;;;;12.82;11.55;;;29.90;99.90;;;;;;5054853;28;20217;-59
2023/08/23 06:24:49;;;;;;;12.32;11.13;;;30.10;99.90;;;;;;5050731;28;20267;-58
2023/08/23 06:27:16;;;;;;;11.52;10.52;;;30.80;99.90;;;;;;5055496;28;20202;-57
2023/08/23 06:29:43;;;;;;;9.55;8.85;;;31.50;99.90;;;;;;5051620;28;20256;-57
2023/08/23 06:32:11;;;;;;;9.90;9.18;;;31.70;99.90;;;;;;5053947;28;20745;-58
2023/08/23 06:34:39;;;;;;;10.35;9.18;;;32.30;99.90;;;;;;5052658;28;20244;-58
2023/08/23 06:37:07;;;;;;;9.02;8.43;;;32.50;99.90;;;;;;5058663;28;20667;-57
2023/08/23 06:39:34;;;;;;;10.50;9.70;;;32.20;99.90;;;;;;5054992;28;20252;-58
2023/08/23 06:42:01;;;;;;;9.40;8.90;;;32.40;99.90;;;;;;5055113;28;20222;-58
2023/08/23 06:44:28;;;;;;;10.00;9.23;;;32.50;99.90;;;;;;5054828;28;20222;-58
2023/08/23 06:46:55;;;;;;;10.20;9.30;;;32.80;99.90;;;;;;5055077;28;20206;-58
2023/08/23 06:49:24;;;;;;;10.65;9.68;;;33.10;99.90;;;;;;5054911;28;20202;-57
2023/08/23 06:51:51;;;;;;;11.75;10.68;;;33.30;99.90;;;;;;5054822;28;20259;-59
2023/08/23 06:54:18;;;;;;;11.52;10.55;;;33.50;99.90;;;;;;5054923;28;20221;-57
2023/08/23 06:56:47;;;;;;;10.25;9.55;;;33.50;99.90;;;;;;5054862;28;20252;-59
2023/08/23 06:59:14;;;;;;;9.85;9.10;;;33.60;99.90;;;;;;5054862;28;20259;-58
2023/08/23 07:01:41;;;;;;;10.18;9.25;;;34.20;99.90;;;;;;5054579;28;20632;-59
2023/08/23 07:04:08;;;;;;;9.57;8.95;;;34.50;99.90;;;;;;5052467;28;20218;-58
2023/08/23 07:06:37;;;;;;;9.90;9.20;;;34.60;99.90;;;;;;5059168;28;20197;-57
2023/08/23 07:09:04;;;;;;;11.02;10.23;;;34.40;99.90;;;;;;5054552;28;20574;-58
2023/08/23 07:11:31;;;;;;;8.98;8.38;;;34.20;99.90;;;;;;5054547;28;20703;-59
2023/08/23 07:13:58;;;;;;;10.45;9.80;;;34.40;99.90;;;;;;5054360;28;20649;-58
2023/08/23 07:16:25;;;;;;;11.25;10.32;;;34.40;99.90;;;;;;5054573;28;20267;-58
2023/08/23 07:18:52;;;;;;;9.60;8.73;;;35.00;99.90;;;;;;5054646;28;20198;-58
2023/08/23 07:21:19;;;;;;;9.93;9.32;;;35.20;99.90;;;;;;5052805;28;20267;-58
2023/08/23 07:23:47;;;;;;;10.30;9.60;;;35.20;99.90;;;;;;5053599;28;20275;-57
2023/08/23 07:26:15;;;;;;;9.60;9.07;;;36.00;99.90;;;;;;5052781;28;20630;-58
2023/08/23 07:28:42;;;;;;;10.85;10.10;;;36.00;99.90;;;;;;5051601;28;20201;-58
2023/08/23 07:31:09;;;;;;;10.27;9.60;;;36.00;99.90;;;;;;5049259;28;20212;-58
2023/08/23 07:33:36;;;;;;;10.38;9.32;;;35.70;99.90;;;;;;5052947;28;20260;-58
2023/08/23 07:36:03;;;;;;;9.98;9.27;;;35.00;99.90;;;;;;5052942;28;20210;-58
2023/08/23 07:38:32;;;;;;;10.65;9.85;;;35.30;99.90;;;;;;5056980;28;20201;-59
2023/08/23 07:41:02;;;;;;;9.23;8.55;;;35.30;99.90;;;;;;5052554;28;20226;-59
2023/08/23 07:43:29;;;;;;;8.48;7.97;;;35.40;99.90;;;;;;5052586;28;20222;-58
2023/08/23 07:45:56;;;;;;;9.38;8.68;;;35.50;99.90;;;;;;5051976;28;20676;-58
2023/08/23 07:48:24;;;;;;;9.30;8.70;;;35.60;99.90;;;;;;5049410;28;20202;-57
2023/08/23 07:50:51;;;;;;;8.95;8.55;;;35.60;99.90;;;;;;5051910;28;20667;-58
2023/08/23 07:53:18;;;;;;;9.38;8.77;;;35.70;99.90;;;;;;5044839;28;20193;-57
2023/08/23 07:55:46;;;;;;;8.60;8.20;;;36.10;99.90;;;;;;5050047;28;20251;-59
2023/08/23 07:58:14;;;;;;;8.52;8.02;;;36.10;99.90;;;;;;5052296;28;20225;-58
2023/08/23 08:00:42;;;;;;;9.38;8.75;;;36.50;99.90;;;;;;5051470;28;20201;-59
2023/08/23 08:03:11;;;;;;;10.13;9.43;;;36.10;99.90;;;;;;5051315;28;20264;-58
2023/08/23 08:05:38;;;;;;;9.65;9.00;;;36.30;99.90;;;;;;5052915;28;20679;-58
2023/08/23 08:08:08;;;;;;;10.07;9.48;;;36.60;99.90;;;;;;5036991;28;20190;-59
2023/08/23 08:10:36;;;;;;;8.98;8.35;;;36.30;99.90;;;;;;5038559;28;20197;-58
2023/08/23 08:13:03;;;;;;;9.98;9.25;;;36.40;99.90;;;;;;5046373;28;20198;-58
2023/08/23 08:15:32;;;;;;;10.60;10.00;;;36.70;99.90;;;;;;5051430;28;20723;-58
2023/08/23 08:17:59;;;;;;;8.77;8.13;;;36.60;99.00;;;;;;5051631;28;20190;-57
2023/08/23 08:20:26;;;;;;;9.65;9.15;;;36.60;99.70;;;;;;5051208;28;20227;-59
2023/08/23 08:22:54;;;;;;;11.32;10.38;;;36.20;99.90;;;;;;5050525;28;20283;-58
2023/08/23 08:25:21;;;;;;;10.30;9.57;;;36.20;99.90;;;;;;5050950;28;20221;-57
2023/08/23 08:27:49;;;;;;;10.20;9.52;;;36.70;99.50;;;;;;5051455;28;20216;-58
2023/08/23 08:30:16;;;;;;;10.35;9.45;;;37.00;98.60;;;;;;5051175;28;20214;-58
2023/08/23 08:32:44;;;;;;;12.48;10.75;;;36.90;99.80;;;;;;5049700;28;20251;-57
2023/08/23 08:35:11;;;;;;;10.35;9.60;;;37.10;99.20;;;;;;5037138;28;20288;-58
2023/08/23 08:37:38;;;;;;;11.38;10.40;;;36.70;99.20;;;;;;5044620;28;20244;-57
2023/08/23 08:40:07;;;;;;;10.20;9.60;;;36.60;98.10;;;;;;5039867;28;20202;-57
2023/08/23 08:42:34;;;;;;;11.10;10.40;;;36.70;98.00;;;;;;5032474;28;20225;-58
2023/08/23 08:45:01;;;;;;;10.77;9.88;;;36.70;98.60;;;;;;5032213;28;20229;-58
2023/08/23 08:47:28;;;;;;;10.32;9.65;;;36.70;97.90;;;;;;5032187;28;20733;-57
2023/08/23 08:49:57;;;;;;;8.98;8.48;;;37.00;99.40;;;;;;5041022;28;20275;-58
2023/08/23 08:52:27;;;;;;;9.65;9.05;;;37.20;99.00;;;;;;5049892;28;20655;-57
2023/08/23 08:54:55;;;;;;;10.75;9.95;;;37.50;97.80;;;;;;5051740;28;20229;-59
2023/08/23 08:57:23;;;;;;;10.63;9.90;;;37.50;95.90;;;;;;5050274;28;20671;-59
2023/08/23 08:59:51;;;;;;;9.90;9.18;;;37.20;97.10;;;;;;5052437;28;20198;-58
2023/08/23 09:02:19;;;;;;;10.65;9.70;;;37.00;95.70;;;;;;5052330;28;20305;-58
2023/08/23 09:04:47;;;;;;;10.27;9.35;;;36.50;96.90;;;;;;5052358;28;20229;-57
2023/08/23 09:07:16;;;;;;;9.68;9.18;;;35.90;96.40;;;;;;5050577;28;20229;-58
2023/08/23 09:09:43;;;;;;;9.27;8.77;;;36.00;96.10;;;;;;5051220;28;20198;-59
2023/08/23 09:12:10;;;;;;;9.15;8.63;;;36.00;95.60;;;;;;5050468;28;20193;-58
2023/08/23 09:14:39;;;;;;;10.13;9.52;;;36.30;96.50;;;;;;5050896;28;20218;-58
2023/08/23 09:17:07;;;;;;;10.90;9.88;;;36.20;95.50;;;;;;5052104;28;20572;-59
2023/08/23 09:19:36;;;;;;;10.77;9.77;;;36.10;99.10;;;;;;5050243;28;20201;-59
2023/08/23 09:22:04;;;;;;;12.30;11.07;;;36.30;99.90;;;;;;5050732;28;20232;-59
2023/08/23 09:24:33;;;;;;;10.82;9.70;;;36.70;99.90;;;;;;5048875;28;20279;-59
2023/08/23 09:27:00;;;;;;;11.75;10.65;;;36.30;99.90;;;;;;5050941;28;20202;-60
2023/08/23 09:29:28;;;;;;;10.93;10.05;;;36.30;99.90;;;;;;5049050;28;20937;-59
2023/08/23 09:32:00;;;;;;;12.50;11.50;;;36.10;99.90;;;;;;5056212;28;20213;-65
2023/08/23 09:34:27;;;;;;;12.23;11.23;;;35.80;99.90;;;;;;5051288;28;20719;-68
2023/08/23 09:36:54;;;;;;;12.43;11.23;;;34.50;99.90;;;;;;5051692;28;20216;-64
2023/08/23 09:39:21;;;;;;;11.90;11.00;;;34.10;99.90;;;;;;5051902;28;20225;-66
2023/08/23 09:41:51;;;;;;;11.75;10.63;;;34.30;99.90;;;;;;5051055;28;20218;-66
2023/08/23 09:44:21;;;;;;;11.20;10.27;;;34.70;99.90;;;;;;5050921;28;20251;-66
2023/08/23 09:46:52;;;;;;;10.77;9.73;;;35.40;99.90;;;;;;5051385;28;20732;-66
2023/08/23 09:49:22;;;;;;;12.27;11.38;;;36.00;99.90;;;;;;5051503;28;20632;-65
2023/08/23 09:51:54;;;;;;;10.80;9.88;;;35.80;99.90;;;;;;5051769;28;20202;-67
2023/08/23 09:54:30;;;;;;;11.57;9.75;;;35.50;99.90;;;;;;5051524;28;20228;-66
2023/08/23 09:57:00;;;;;;;11.68;10.77;;;35.50;99.90;;;;;;5051599;28;20201;-66
2023/08/23 09:59:27;;;;;;;10.88;9.93;;;35.50;99.90;;;;;;5050698;28;20284;-66
2023/08/23 10:01:54;;;;;;;10.38;9.77;;;35.80;99.90;;;;;;5051442;28;20229;-64
2023/08/23 10:04:22;;;;;;;10.50;9.73;;;35.70;99.90;;;;;;5051251;28;20283;-64
2023/08/23 10:06:50;;;;;;;11.20;10.30;;;35.50;99.90;;;;;;5051546;28;20232;-65
2023/08/23 10:09:17;;;;;;;9.75;9.13;;;35.50;99.90;;;;;;5049641;28;20282;-65
2023/08/23 10:11:45;;;;;;;9.35;8.82;;;35.90;99.90;;;;;;5050105;28;20209;-67
2023/08/23 10:14:14;;;;;;;9.80;8.93;;;36.20;99.90;;;;;;5050805;28;20788;-66
2023/08/23 10:16:43;;;;;;;11.25;10.30;;;36.10;99.90;;;;;;5050613;28;20205;-69
2023/08/23 10:19:10;;;;;;;9.88;8.98;;;35.30;99.90;;;;;;5042470;28;20202;-65
2023/08/23 10:21:37;;;;;;;10.00;9.23;;;35.40;99.90;;;;;;5051219;28;20263;-67
2023/08/23 10:24:05;;;;;;;10.85;9.90;;;35.30;99.90;;;;;;5050722;28;20229;-67
2023/08/23 10:26:45;;;;;;;8.73;8.18;;;35.60;99.90;;;;;;5051203;28;20733;-68
2023/08/23 10:29:13;;;;;;;8.93;8.48;;;35.60;99.90;;;;;;5050494;28;20263;-59
2023/08/23 10:31:53;;;;;;;8.55;7.95;;;35.80;99.90;;;;;;5049186;28;20556;-58
2023/08/23 10:34:24;;;;;;;9.23;8.43;;;36.30;99.90;;;;;;5047857;28;20706;-59
2023/08/23 10:36:53;;;;;;;9.77;9.05;;;36.80;99.90;;;;;;5049051;28;20281;-59
2023/08/23 10:39:22;;;;;;;9.57;8.73;;;37.00;99.90;;;;;;5051241;28;20384;-67
2023/08/23 10:41:52;;;;;;;9.77;9.10;;;36.70;99.90;;;;;;5050108;28;20312;-67
2023/08/23 10:44:21;;;;;;;9.13;8.38;;;36.00;99.90;;;;;;5045822;28;20305;-67
2023/08/23 10:46:51;;;;;;;8.15;7.65;;;35.80;99.90;;;;;;5043493;28;20667;-65
2023/08/23 10:49:21;;;;;;;9.32;8.68;;;35.50;99.90;;;;;;5047893;28;20233;-66
2023/08/23 10:51:48;;;;;;;8.90;8.35;;;36.00;99.90;;;;;;5041655;28;20233;-59
2023/08/23 10:54:15;;;;;;;9.68;9.07;;;35.80;99.90;;;;;;5045404;28;20264;-59
2023/08/23 10:56:43;;;;;;;10.40;9.60;;;35.50;99.90;;;;;;5046811;28;20296;-57
2023/08/23 10:59:10;;;;;;;9.98;9.27;;;35.00;99.90;;;;;;5049494;28;20200;-58
2023/08/23 11:01:39;;;;;;;9.15;8.50;;;34.10;99.90;;;;;;5050356;28;20198;-60
2023/08/23 11:04:07;;;;;;;8.48;8.07;;;33.90;99.90;;;;;;5070482;28;20722;-59
2023/08/23 11:06:34;;;;;;;9.20;8.38;;;33.80;99.90;;;;;;5073334;28;20281;-59
2023/08/23 11:09:02;;;;;;;10.52;9.82;;;33.90;99.90;;;;;;5073224;28;20212;-59
2023/08/23 11:11:29;;;;;;;8.65;8.15;;;33.90;99.90;;;;;;5061175;28;20202;-59
2023/08/23 11:13:56;;;;;;;10.52;9.63;;;34.00;99.90;;;;;;5053680;28;20221;-58
2023/08/23 11:16:24;;;;;;;9.25;8.70;;;33.60;99.90;;;;;;5050307;28;20194;-59
2023/08/23 11:18:53;;;;;;;9.82;8.95;;;33.40;99.90;;;;;;5047811;28;20201;-59
2023/08/23 11:21:20;;;;;;;10.38;9.57;;;33.30;99.90;;;;;;5054497;28;20206;-59
2023/08/23 11:23:48;;;;;;;8.15;7.68;;;33.30;99.90;;;;;;5053912;28;20222;-59
2023/08/23 11:26:15;;;;;;;10.88;9.98;;;33.30;99.90;;;;;;5054165;28;20236;-59
2023/08/23 11:28:42;;;;;;;10.52;9.93;;;33.20;99.90;;;;;;5053915;28;20235;-60
2023/08/23 11:31:09;;;;;;;10.27;9.52;;;33.10;99.90;;;;;;5053026;28;20206;-58
2023/08/23 11:33:38;;;;;;;8.32;7.85;;;32.90;99.90;;;;;;5054427;28;20267;-58
2023/08/23 11:36:09;;;;;;;9.95;9.15;;;32.90;99.90;;;;;;5054025;28;20300;-58
2023/08/23 11:38:36;;;;;;;9.00;8.35;;;32.80;99.90;;;;;;5060489;28;20206;-58
2023/08/23 11:41:03;;;;;;;9.27;8.57;;;33.00;99.90;;;;;;5053379;28;20206;-58
2023/08/23 11:43:30;;;;;;;8.52;7.97;;;33.00;99.90;;;;;;5040986;28;20230;-57
2023/08/23 11:45:58;;;;;;;12.07;9.85;;;33.20;99.90;;;;;;5049673;28;20292;-60
2023/08/23 11:48:25;;;;;;;10.32;9.30;;;32.70;99.90;;;;;;5041338;28;20301;-58
2023/08/23 11:50:53;;;;;;;8.88;8.07;;;32.80;99.90;;;;;;5043525;28;20205;-57
2023/08/23 11:53:22;;;;;;;9.77;8.98;;;32.80;99.90;;;;;;5032776;28;20191;-57
2023/08/23 11:55:51;;;;;;;8.40;7.90;;;32.80;99.90;;;;;;5033507;28;20233;-58
2023/08/23 11:58:18;;;;;;;9.80;8.80;;;32.90;99.90;;;;;;5036628;28;20222;-57
2023/08/23 12:00:47;;;;;;;9.32;8.50;;;32.80;99.90;;;;;;5036026;28;20248;-58
2023/08/23 12:03:14;;;;;;;8.85;8.25;;;33.00;99.90;;;;;;5035038;28;20246;-57
2023/08/23 12:05:41;;;;;;;9.68;8.93;;;32.90;99.90;;;;;;5051961;28;20201;-58
2023/08/23 12:08:08;;;;;;;11.07;10.30;;;32.90;99.90;;;;;;5052183;28;20194;-57
2023/08/23 12:10:36;;;;;;;9.90;8.95;;;32.90;99.90;;;;;;5056410;28;20197;-57
2023/08/23 12:13:03;;;;;;;10.68;9.88;;;32.70;99.90;;;;;;5051192;28;20277;-57
2023/08/23 12:15:31;;;;;;;10.10;9.40;;;32.80;99.90;;;;;;5049013;28;20230;-58
2023/08/23 12:17:58;;;;;;;9.38;8.77;;;32.70;99.90;;;;;;5051292;28;20229;-58
2023/08/23 12:20:25;;;;;;;8.57;8.05;;;32.80;99.90;;;;;;5049442;28;20674;-57
2023/08/23 12:22:52;;;;;;;8.57;8.00;;;32.90;99.90;;;;;;5051146;28;20248;-65
2023/08/23 12:25:19;;;;;;;9.68;8.88;;;32.90;99.90;;;;;;5048726;28;20221;-64
2023/08/23 12:27:47;;;;;;;9.85;8.88;;;32.80;99.90;;;;;;5049227;28;20201;-56
2023/08/23 12:30:15;;;;;;;9.93;9.20;;;32.70;99.90;;;;;;5050513;28;20834;-56
2023/08/23 12:32:41;;;;;;;10.23;9.40;;;32.80;99.90;;;;;;5050775;28;20190;-58
2023/08/23 12:35:09;;;;;;;10.25;9.55;;;32.70;99.90;;;;;;5047798;28;20798;-58